Terminal Aerodrome Forecast
Issued by NWS Charleston, WV

Current Version | Previous Version | Graphics & Text | Print | Product List | Glossary On
Versions: 1 2 3 4 5 6 7 8 9 10 11 12 13 14 15 16 17 18 19 20 21 22 23 24 25
000
FTUS41 KRLX 270908 AAA
TAFPKB
TAF AMD
KPKB 270908Z 2709/2806 22005KT P6SM SCT025 BKN050
      TEMPO 2709/2712 6SM SHRA BR BKN025
     FM271200 21005KT P6SM BKN025
     FM271400 22006KT P6SM BKN035
     FM271700 22008KT P6SM SCT040
     FM280100 20004KT P6SM SCT050
     FM280500 VRB03KT P6SM BKN050=

USA.gov is the U.S. government's official web portal to all federal, state and local government web resources and services.